Time;durP1;ratioP1;P1;durP2;ratioP2;P2;SDS_P1;SDS_P2;PMS_P1;PMS_P2;Temp;Humidity;BMP_temperature;BMP_pressure;BME280_temperature;BME280_humidity;BME280_pressure;Samples;Min_cycle;Max_cycle;Signal;HPM_P1;HPM_P2
2022/09/21 00:01:50;;;;;;;;;;;22.20;45.50;21.00;102183.00;;;;5102159;27;19918;-66
2022/09/21 00:04:36;;;;;;;;;;;22.10;45.40;21.00;102188.00;;;;5100439;28;19916;-66
2022/09/21 00:07:22;;;;;;;;;;;22.20;45.50;21.00;102188.00;;;;5092321;28;19923;-66
2022/09/21 00:10:08;;;;;;;;;;;22.10;45.50;21.00;102186.00;;;;5101241;27;19923;-66
2022/09/21 00:12:55;;;;;;;;;;;22.10;45.50;21.00;102186.00;;;;5088446;27;19912;-66
2022/09/21 00:15:41;;;;;;;;;;;22.10;45.50;21.00;102189.00;;;;5103263;28;20376;-66
2022/09/21 00:18:27;;;;;;;;;;;22.10;45.40;20.90;102184.00;;;;5104303;27;19911;-66
2022/09/21 00:21:13;;;;;;;;;;;22.10;45.40;20.90;102193.00;;;;5104552;27;19915;-66
2022/09/21 00:24:01;;;;;;;;;;;22.10;45.40;20.90;102193.00;;;;5102009;27;19993;-66
2022/09/21 00:26:47;;;;;;;;;;;22.10;45.40;20.90;102195.00;;;;5105878;27;20355;-66
2022/09/21 00:29:34;;;;;;;;;;;22.10;45.50;20.90;102196.00;;;;5101816;28;19912;-66
2022/09/21 00:32:20;;;;;;;;;;;22.10;45.40;20.90;102191.00;;;;5102115;27;19919;-66
2022/09/21 00:35:09;;;;;;;;;;;22.10;45.40;20.90;102205.00;;;;5101166;28;19916;-66
2022/09/21 00:37:55;;;;;;;;;;;22.10;45.40;20.90;102200.00;;;;5100203;28;19912;-66
2022/09/21 00:40:41;;;;;;;;;;;22.10;45.40;20.90;102196.00;;;;5090310;27;19919;-66
2022/09/21 00:43:27;;;;;;;;;;;22.10;45.40;20.90;102198.00;;;;5104230;28;19911;-66
2022/09/21 00:46:31;;;;;;;;;;;22.10;45.40;20.90;102204.00;;;;5104166;27;20285;-66
2022/09/21 00:49:17;;;;;;;;;;;22.00;45.40;20.90;102198.00;;;;5073455;28;19916;-66
2022/09/21 00:52:04;;;;;;;;;;;22.00;45.30;20.90;102200.00;;;;5078316;28;19927;-66
2022/09/21 00:54:51;;;;;;;;;;;22.10;45.40;20.90;102203.00;;;;5101646;28;20009;-66
2022/09/21 00:57:37;;;;;;;;;;;22.10;45.40;20.90;102204.00;;;;5090871;28;19916;-66
2022/09/21 01:00:23;;;;;;;;;;;22.00;45.30;20.90;102204.00;;;;5084533;28;19915;-66
2022/09/21 01:03:09;;;;;;;;;;;22.00;45.30;20.80;102205.00;;;;5086495;28;19962;-66
2022/09/21 01:05:55;;;;;;;;;;;22.00;45.30;20.80;102201.00;;;;5081813;28;19912;-66
2022/09/21 01:08:41;;;;;;;;;;;22.00;45.30;20.80;102198.00;;;;5101315;28;19923;-66
2022/09/21 01:12:06;;;;;;;;;;;22.00;45.30;20.80;102207.00;;;;5096318;28;20006;-66
2022/09/21 01:15:17;;;;;;;;;;;22.00;45.30;20.80;102205.00;;;;5102153;28;19964;-66
2022/09/21 01:18:09;;;;;;;;;;;22.00;45.30;20.80;102208.00;;;;5100313;28;19938;-66
2022/09/21 01:21:04;;;;;;;;;;;22.00;45.40;20.80;102206.00;;;;5100009;27;19912;-66
2022/09/21 01:24:03;;;;;;;;;;;22.00;45.30;20.80;102209.00;;;;5101204;27;19918;-66
2022/09/21 01:26:57;;;;;;;;;;;21.90;45.30;20.80;102206.00;;;;5090118;27;19946;-66
2022/09/21 01:29:48;;;;;;;;;;;22.00;45.30;20.80;102212.00;;;;5087576;28;19981;-66
2022/09/21 01:32:49;;;;;;;;;;;21.90;45.20;20.80;102210.00;;;;5087584;28;19912;-66
2022/09/21 01:35:38;;;;;;;;;;;22.00;45.30;20.80;102214.00;;;;5093781;28;20320;-66
2022/09/21 01:38:29;;;;;;;;;;;21.90;45.20;20.80;102216.00;;;;5083478;28;19973;-66
2022/09/21 01:41:18;;;;;;;;;;;21.90;45.20;20.80;102210.00;;;;5072480;28;20229;-66
2022/09/21 01:44:09;;;;;;;;;;;21.90;45.20;20.70;102214.00;;;;5093719;27;19934;-66
2022/09/21 01:46:55;;;;;;;;;;;21.90;45.30;20.70;102210.00;;;;5100285;28;19916;-66
2022/09/21 01:49:47;;;;;;;;;;;21.90;45.20;20.70;102214.00;;;;5076297;28;19920;-66
2022/09/21 01:52:42;;;;;;;;;;;21.90;45.20;20.70;102200.00;;;;5090337;28;19958;-66
2022/09/21 01:55:31;;;;;;;;;;;21.90;45.20;20.70;102204.00;;;;5088818;27;19977;-66
2022/09/21 01:58:38;;;;;;;;;;;21.90;45.20;20.70;102208.00;;;;5104797;27;19916;-66
2022/09/21 02:01:24;;;;;;;;;;;21.90;45.20;20.70;102211.00;;;;5086014;28;19916;-66
2022/09/21 02:04:11;;;;;;;;;;;21.90;45.20;20.70;102218.00;;;;5075198;28;19916;-66
2022/09/21 02:06:57;;;;;;;;;;;21.90;45.20;20.70;102212.00;;;;5110376;27;19963;-66
2022/09/21 02:09:43;;;;;;;;;;;21.90;45.20;20.70;102214.00;;;;5086093;28;19927;-66
2022/09/21 02:12:31;;;;;;;;;;;21.90;45.20;20.70;102205.00;;;;5086151;28;19915;-66
2022/09/21 02:15:20;;;;;;;;;;;21.90;45.20;20.70;102207.00;;;;5101393;27;20005;-66
2022/09/21 02:18:13;;;;;;;;;;;21.90;45.20;20.70;102210.00;;;;5076759;28;19916;-66
2022/09/21 02:20:59;;;;;;;;;;;21.80;45.10;20.70;102215.00;;;;5078230;28;19915;-66
2022/09/21 02:23:51;;;;;;;;;;;21.80;45.10;20.60;102215.00;;;;5090775;28;19969;-66
2022/09/21 02:26:46;;;;;;;;;;;21.80;45.30;20.60;102220.00;;;;5063292;28;20201;-66
2022/09/21 02:29:51;;;;;;;;;;;21.80;45.10;20.60;102217.00;;;;5071010;28;20020;-66
2022/09/21 02:33:10;;;;;;;;;;;21.80;45.10;20.60;102227.00;;;;5088035;28;20246;-66
2022/09/21 02:36:06;;;;;;;;;;;21.80;45.10;20.60;102216.00;;;;5080726;28;19918;-66
2022/09/21 02:38:53;;;;;;;;;;;21.80;45.00;20.60;102221.00;;;;5086336;28;19916;-66
2022/09/21 02:41:44;;;;;;;;;;;21.80;45.10;20.60;102215.00;;;;5080305;28;20139;-66
2022/09/21 02:44:55;;;;;;;;;;;21.80;45.00;20.60;102217.00;;;;5098656;28;20284;-66
2022/09/21 02:47:41;;;;;;;;;;;21.80;45.10;20.60;102214.00;;;;5097316;28;21243;-66
2022/09/21 02:50:36;;;;;;;;;;;21.80;45.10;20.60;102224.00;;;;5095827;28;19918;-66
2022/09/21 02:53:27;;;;;;;;;;;21.80;45.00;20.60;102220.00;;;;5062969;28;19965;-66
2022/09/21 02:56:13;;;;;;;;;;;21.80;45.00;20.60;102217.00;;;;5098359;28;19923;-66
2022/09/21 02:59:03;;;;;;;;;;;21.80;45.00;20.60;102220.00;;;;5101188;28;19915;-66
2022/09/21 03:01:49;;;;;;;;;;;21.80;45.00;20.60;102220.00;;;;5082660;28;19939;-66
2022/09/21 03:04:35;;;;;;;;;;;21.80;45.00;20.60;102218.00;;;;5079140;28;19915;-66
2022/09/21 03:07:21;;;;;;;;;;;21.80;45.00;20.60;102215.00;;;;5100517;28;20384;-66
2022/09/21 03:10:08;;;;;;;;;;;21.80;45.70;20.60;102218.00;;;;5096386;28;19912;-66
2022/09/21 03:12:58;;;;;;;;;;;21.70;44.90;20.60;102216.00;;;;5098135;28;19965;-66
2022/09/21 03:15:46;;;;;;;;;;;21.70;44.90;20.50;102227.00;;;;5095606;28;19923;-66
2022/09/21 03:18:33;;;;;;;;;;;21.80;45.00;20.50;102222.00;;;;5092694;28;19919;-66
2022/09/21 03:21:19;;;;;;;;;;;21.70;44.90;20.60;102227.00;;;;5094577;28;19931;-66
2022/09/21 03:24:05;;;;;;;;;;;21.70;44.90;20.50;102232.00;;;;5096461;28;19915;-66
2022/09/21 03:26:51;;;;;;;;;;;21.70;44.90;20.50;102235.00;;;;5099526;28;19919;-66
2022/09/21 03:29:37;;;;;;;;;;;21.70;44.90;20.50;102232.00;;;;5097763;27;19912;-66
2022/09/21 03:32:23;;;;;;;;;;;21.70;44.90;20.50;102235.00;;;;5106227;27;19915;-66
2022/09/21 03:35:09;;;;;;;;;;;21.70;44.90;20.50;102241.00;;;;5104444;27;19912;-66
2022/09/21 03:37:55;;;;;;;;;;;21.70;44.90;20.50;102241.00;;;;5103851;27;19935;-66
2022/09/21 03:40:45;;;;;;;;;;;21.70;44.90;20.50;102233.00;;;;5090060;27;19915;-66
2022/09/21 03:43:31;;;;;;;;;;;21.70;44.90;20.50;102238.00;;;;5104004;28;19977;-67
2022/09/21 03:46:17;;;;;;;;;;;21.70;44.90;20.50;102244.00;;;;5105573;27;20195;-66
2022/09/21 03:49:03;;;;;;;;;;;21.70;44.90;20.50;102247.00;;;;5100664;27;19916;-66
2022/09/21 03:51:49;;;;;;;;;;;21.70;44.90;20.50;102241.00;;;;5104764;28;19920;-66
2022/09/21 03:54:35;;;;;;;;;;;21.70;44.90;20.50;102239.00;;;;5102741;27;19912;-66
2022/09/21 03:57:20;;;;;;;;;;;21.70;44.90;20.50;102242.00;;;;5096287;28;19912;-66
2022/09/21 04:00:08;;;;;;;;;;;21.70;44.90;20.50;102242.00;;;;5100986;27;19923;-66
2022/09/21 04:02:54;;;;;;;;;;;21.70;44.90;20.50;102242.00;;;;5089948;28;19939;-66
2022/09/21 04:05:40;;;;;;;;;;;21.70;44.90;20.50;102241.00;;;;5100650;27;20317;-66
2022/09/21 04:08:26;;;;;;;;;;;21.70;44.80;20.50;102239.00;;;;5104114;27;20272;-66
2022/09/21 04:11:16;;;;;;;;;;;21.60;44.80;20.50;102244.00;;;;5104058;27;19958;-66
2022/09/21 04:14:02;;;;;;;;;;;21.70;44.80;20.50;102242.00;;;;5099313;27;19916;-66
2022/09/21 04:16:50;;;;;;;;;;;21.70;44.80;20.50;102243.00;;;;5092395;27;19911;-66
2022/09/21 04:19:36;;;;;;;;;;;21.70;44.80;20.50;102237.00;;;;5103342;27;19912;-66
2022/09/21 04:22:23;;;;;;;;;;;21.70;44.80;20.50;102243.00;;;;5103600;27;19916;-66
2022/09/21 04:25:09;;;;;;;;;;;21.70;44.80;20.50;102239.00;;;;5099625;27;19915;-66
2022/09/21 04:27:55;;;;;;;;;;;21.70;44.80;20.50;102247.00;;;;5103932;27;19919;-66
2022/09/21 04:30:41;;;;;;;;;;;21.70;44.80;20.50;102246.00;;;;5101462;27;19919;-66
2022/09/21 04:33:27;;;;;;;;;;;21.70;44.80;20.50;102241.00;;;;5094059;27;19912;-66
2022/09/21 04:36:14;;;;;;;;;;;21.70;44.80;20.50;102244.00;;;;5101010;27;19912;-66
2022/09/21 04:39:00;;;;;;;;;;;21.70;44.80;20.50;102241.00;;;;5104822;28;19920;-66
2022/09/21 04:41:46;;;;;;;;;;;21.70;44.80;20.50;102231.00;;;;5089769;28;19915;-66
2022/09/21 04:44:32;;;;;;;;;;;21.70;44.80;20.50;102243.00;;;;5105102;27;20402;-66
2022/09/21 04:47:22;;;;;;;;;;;21.70;44.80;20.50;102248.00;;;;5103028;27;20615;-66
2022/09/21 04:50:08;;;;;;;;;;;21.70;44.80;20.50;102251.00;;;;5100194;28;19915;-66
2022/09/21 04:52:54;;;;;;;;;;;21.70;44.80;20.50;102245.00;;;;5089943;28;19965;-66
2022/09/21 04:55:40;;;;;;;;;;;21.70;44.80;20.40;102254.00;;;;5101203;27;19959;-66
2022/09/21 04:58:26;;;;;;;;;;;21.70;44.80;20.40;102259.00;;;;5104184;27;20202;-66
2022/09/21 05:01:12;;;;;;;;;;;21.70;44.80;20.40;102256.00;;;;5101356;27;19912;-66
2022/09/21 05:04:00;;;;;;;;;;;21.70;44.80;20.40;102260.00;;;;5103870;27;19920;-66
2022/09/21 05:06:46;;;;;;;;;;;21.60;44.80;20.40;102255.00;;;;5103227;28;20345;-66
2022/09/21 05:12:37;;;;;;;;;;;21.70;44.80;20.40;102260.00;;;;5103804;28;19915;-66
2022/09/21 05:15:23;;;;;;;;;;;21.60;44.80;20.40;102266.00;;;;5097409;28;19957;-66
2022/09/21 05:18:09;;;;;;;;;;;21.70;44.80;20.40;102270.00;;;;5101914;27;20388;-66
2022/09/21 05:20:58;;;;;;;;;;;21.70;44.80;20.40;102266.00;;;;5102627;27;20125;-66
2022/09/21 05:23:44;;;;;;;;;;;21.70;44.80;20.40;102271.00;;;;5093902;28;19978;-66
2022/09/21 05:26:30;;;;;;;;;;;21.60;44.80;20.40;102284.00;;;;5101119;27;20393;-66
2022/09/21 05:29:17;;;;;;;;;;;21.60;44.70;20.40;102278.00;;;;5097284;28;19939;-66
2022/09/21 05:32:38;;;;;;;;;;;21.60;44.80;20.40;102280.00;;;;5102825;27;19983;-66
2022/09/21 05:35:30;;;;;;;;;;;21.60;44.70;20.40;102279.00;;;;5100612;27;19923;-66
2022/09/21 05:38:17;;;;;;;;;;;21.60;44.70;20.40;102287.00;;;;5092492;27;20567;-66
2022/09/21 05:41:03;;;;;;;;;;;21.70;44.80;20.40;102293.00;;;;5096931;27;20276;-66
2022/09/21 05:43:49;;;;;;;;;;;21.60;44.80;20.40;102288.00;;;;5102521;28;19911;-66
2022/09/21 05:46:47;;;;;;;;;;;21.50;44.70;20.40;102294.00;;;;5101698;28;19934;-66
2022/09/21 05:49:40;;;;;;;;;;;21.60;44.80;20.40;102292.00;;;;5109560;27;19977;-66
2022/09/21 05:52:42;;;;;;;;;;;21.60;44.80;20.40;102289.00;;;;5072583;28;20727;-66
2022/09/21 05:55:31;;;;;;;;;;;21.60;44.80;20.40;102300.00;;;;5086760;28;19980;-66
2022/09/21 05:58:28;;;;;;;;;;;21.60;44.80;20.40;102306.00;;;;5101539;28;20027;-66
2022/09/21 06:01:28;;;;;;;;;;;21.60;44.70;20.40;102298.00;;;;5076315;28;19962;-66
2022/09/21 06:04:15;;;;;;;;;;;21.60;44.70;20.40;102299.00;;;;5098695;28;20320;-66
2022/09/21 06:07:01;;;;;;;;;;;21.60;44.70;20.30;102314.00;;;;5104838;27;19919;-66
2022/09/21 06:09:47;;;;;;;;;;;21.60;44.80;20.30;102307.00;;;;5088954;28;20412;-66
2022/09/21 06:12:33;;;;;;;;;;;21.60;44.70;20.30;102303.00;;;;5101184;27;19911;-66
2022/09/21 06:15:19;;;;;;;;;;;21.60;44.70;20.30;102311.00;;;;5099127;28;19915;-66
2022/09/21 06:18:05;;;;;;;;;;;21.60;44.80;20.40;102313.00;;;;5102474;28;20555;-66
2022/09/21 06:20:51;;;;;;;;;;;21.60;44.70;20.30;102317.00;;;;5087719;27;19915;-66
2022/09/21 06:23:38;;;;;;;;;;;21.60;44.70;20.30;102319.00;;;;5098801;27;19934;-66
2022/09/21 06:26:25;;;;;;;;;;;21.60;44.70;20.30;102316.00;;;;5100760;27;19920;-65
2022/09/21 06:29:11;;;;;;;;;;;21.60;44.80;20.30;102313.00;;;;5092990;28;19923;-66
2022/09/21 06:31:58;;;;;;;;;;;21.60;44.70;20.30;102313.00;;;;5098199;28;19923;-66
2022/09/21 06:34:44;;;;;;;;;;;21.60;44.70;20.30;102317.00;;;;5099675;28;20286;-66
2022/09/21 06:37:30;;;;;;;;;;;21.60;44.70;20.30;102313.00;;;;5094512;28;19942;-66
2022/09/21 06:40:16;;;;;;;;;;;21.60;44.70;20.30;102309.00;;;;5084261;28;19924;-66
2022/09/21 06:43:02;;;;;;;;;;;21.60;44.70;20.30;102319.00;;;;5099536;28;19990;-66
2022/09/21 06:45:56;;;;;;;;;;;21.60;44.70;20.30;102312.00;;;;5086373;28;20293;-66
2022/09/21 06:48:42;;;;;;;;;;;21.60;44.70;20.30;102313.00;;;;5098615;28;19920;-66
2022/09/21 06:51:28;;;;;;;;;;;21.60;44.70;20.30;102308.00;;;;5097326;28;20255;-66
2022/09/21 06:54:14;;;;;;;;;;;21.60;44.70;20.30;102309.00;;;;5098368;28;20362;-66
2022/09/21 06:57:00;;;;;;;;;;;21.60;44.70;20.30;102317.00;;;;5083326;28;19912;-66
2022/09/21 06:59:46;;;;;;;;;;;21.60;44.70;20.30;102315.00;;;;5096105;28;19969;-66
2022/09/21 07:02:32;;;;;;;;;;;21.60;44.70;20.30;102311.00;;;;5100487;28;19919;-66
2022/09/21 07:05:18;;;;;;;;;;;21.60;44.70;20.30;102312.00;;;;5100244;27;19912;-66
2022/09/21 07:08:04;;;;;;;;;;;21.60;44.70;20.30;102325.00;;;;5102110;27;20043;-66
2022/09/21 07:10:50;;;;;;;;;;;21.60;44.70;20.30;102319.00;;;;5100290;27;20349;-66
2022/09/21 07:13:37;;;;;;;;;;;21.60;44.70;20.30;102322.00;;;;5105362;27;19915;-65
2022/09/21 07:16:23;;;;;;;;;;;21.60;44.70;20.30;102325.00;;;;5102985;27;19912;-66
2022/09/21 07:19:09;;;;;;;;;;;21.60;44.70;20.30;102321.00;;;;5105913;28;19916;-66
2022/09/21 07:21:55;;;;;;;;;;;21.60;44.70;20.30;102317.00;;;;5105013;27;19916;-66
2022/09/21 07:24:41;;;;;;;;;;;21.60;44.70;20.30;102321.00;;;;5101566;27;20264;-66
2022/09/21 07:27:28;;;;;;;;;;;21.60;44.70;20.30;102322.00;;;;5103420;28;19916;-66
2022/09/21 07:30:14;;;;;;;;;;;21.60;44.70;20.30;102324.00;;;;5086336;28;20299;-66
2022/09/21 07:33:00;;;;;;;;;;;21.60;44.60;20.40;102321.00;;;;5103114;27;19923;-66
2022/09/21 07:35:52;;;;;;;;;;;21.60;44.70;20.30;102323.00;;;;5106784;28;19916;-66
2022/09/21 07:38:39;;;;;;;;;;;21.60;44.70;20.40;102332.00;;;;5101795;28;20002;-66
2022/09/21 07:41:25;;;;;;;;;;;21.60;44.60;20.40;102327.00;;;;5103471;27;19919;-66
2022/09/21 07:44:11;;;;;;;;;;;21.60;44.60;20.40;102332.00;;;;5101808;27;19911;-66
2022/09/21 07:46:57;;;;;;;;;;;21.60;44.70;20.40;102320.00;;;;5086061;27;20019;-66
2022/09/21 07:49:45;;;;;;;;;;;21.60;44.60;20.40;102331.00;;;;5102801;27;19916;-66
2022/09/21 07:52:31;;;;;;;;;;;21.70;44.70;20.40;102333.00;;;;5101805;27;19912;-66
2022/09/21 07:55:17;;;;;;;;;;;21.60;44.70;20.40;102329.00;;;;5102146;28;19919;-66
2022/09/21 08:01:07;;;;;;;;;;;21.60;44.60;20.40;102322.00;;;;5106176;27;19911;-66
2022/09/21 08:03:54;;;;;;;;;;;21.70;44.70;20.40;102330.00;;;;5106313;28;19912;-66
2022/09/21 08:06:41;;;;;;;;;;;21.60;44.70;20.40;102328.00;;;;5086270;28;19912;-66
2022/09/21 08:09:27;;;;;;;;;;;21.60;44.70;20.40;102331.00;;;;5102748;27;19915;-66
2022/09/21 08:12:13;;;;;;;;;;;21.70;44.70;20.40;102325.00;;;;5104564;27;20013;-66
2022/09/21 08:14:59;;;;;;;;;;;21.60;44.70;20.40;102326.00;;;;5097477;28;19924;-66
2022/09/21 08:17:45;;;;;;;;;;;21.70;44.70;20.40;102336.00;;;;5102882;27;20370;-66
2022/09/21 08:20:31;;;;;;;;;;;21.60;44.70;20.40;102332.00;;;;5102607;27;20445;-66
2022/09/21 08:23:17;;;;;;;;;;;21.60;44.70;20.40;102332.00;;;;5101767;27;19915;-66
2022/09/21 08:26:05;;;;;;;;;;;21.70;44.80;20.40;102328.00;;;;5101892;27;19923;-66
2022/09/21 08:28:51;;;;;;;;;;;21.70;44.80;20.40;102335.00;;;;5101342;27;19920;-66
2022/09/21 08:31:37;;;;;;;;;;;21.70;44.70;20.40;102341.00;;;;5104961;27;19916;-66
2022/09/21 08:34:23;;;;;;;;;;;21.70;44.80;20.40;102336.00;;;;5103869;27;20311;-66
2022/09/21 08:37:09;;;;;;;;;;;21.70;44.80;20.40;102341.00;;;;5108107;28;20431;-66
2022/09/21 08:39:55;;;;;;;;;;;21.70;44.80;20.40;102336.00;;;;5102214;27;19912;-66
2022/09/21 08:42:49;;;;;;;;;;;21.70;44.70;20.40;102338.00;;;;5089401;27;19966;-66
2022/09/21 08:45:41;;;;;;;;;;;21.70;44.80;20.40;102335.00;;;;5102596;27;20200;-66
2022/09/21 08:48:28;;;;;;;;;;;21.70;44.80;20.40;102343.00;;;;5105603;27;20008;-66
2022/09/21 08:51:20;;;;;;;;;;;21.70;44.80;20.40;102338.00;;;;5093636;27;19995;-66
2022/09/21 08:54:12;;;;;;;;;;;21.70;44.80;20.40;102335.00;;;;5099151;27;19923;-66
2022/09/21 08:56:58;;;;;;;;;;;21.70;44.80;20.40;102341.00;;;;5092676;28;19916;-66
2022/09/21 08:59:46;;;;;;;;;;;21.70;44.80;20.40;102332.00;;;;5078578;28;19962;-66
2022/09/21 09:02:31;;;;;;;;;;;21.70;44.80;20.40;102337.00;;;;5083373;28;20371;-66
2022/09/21 09:05:27;;;;;;;;;;;21.70;44.80;20.40;102335.00;;;;5101889;27;19915;-66
2022/09/21 09:08:35;;;;;;;;;;;21.70;44.80;20.40;102334.00;;;;5099838;27;19923;-66
2022/09/21 09:11:37;;;;;;;;;;;21.70;44.80;20.40;102338.00;;;;5105747;27;20024;-66
2022/09/21 09:14:29;;;;;;;;;;;21.70;44.80;20.40;102342.00;;;;5086894;28;20002;-66
2022/09/21 09:17:51;;;;;;;;;;;21.80;44.90;20.50;102338.00;;;;5103041;27;19958;-66
2022/09/21 09:20:44;;;;;;;;;;;21.70;44.80;20.40;102342.00;;;;5092690;27;19918;-66
2022/09/21 09:23:32;;;;;;;;;;;21.70;44.80;20.50;102348.00;;;;5089409;28;20038;-66
2022/09/21 09:26:21;;;;;;;;;;;21.70;44.90;20.50;102343.00;;;;5090491;28;19919;-66
2022/09/21 09:29:32;;;;;;;;;;;21.70;44.90;20.50;102348.00;;;;5086647;27;19967;-66
2022/09/21 09:32:18;;;;;;;;;;;21.80;45.00;20.50;102347.00;;;;5105061;27;19915;-66
2022/09/21 09:35:26;;;;;;;;;;;21.80;44.90;20.50;102347.00;;;;5088224;28;19916;-66
2022/09/21 09:38:31;;;;;;;;;;;21.80;45.00;20.50;102349.00;;;;5095803;28;20385;-66
2022/09/21 09:41:32;;;;;;;;;;;21.80;45.00;20.50;102346.00;;;;5090269;28;20269;-66
2022/09/21 09:44:59;;;;;;;;;;;21.80;45.00;20.50;102348.00;;;;5067739;28;20373;-66
2022/09/21 09:48:10;;;;;;;;;;;21.80;44.90;20.50;102350.00;;;;5092893;27;19980;-66
2022/09/21 09:50:56;;;;;;;;;;;21.80;45.00;20.50;102341.00;;;;5101848;27;19915;-66
2022/09/21 09:53:42;;;;;;;;;;;21.80;44.90;20.50;102345.00;;;;5105339;28;19927;-66
2022/09/21 09:56:30;;;;;;;;;;;21.80;45.00;20.50;102351.00;;;;5101969;27;19911;-66
2022/09/21 09:59:42;;;;;;;;;;;21.80;45.00;20.50;102350.00;;;;5107251;27;19955;-66
2022/09/21 10:02:28;;;;;;;;;;;21.80;44.90;20.50;102346.00;;;;5085616;28;19916;-66
2022/09/21 10:05:29;;;;;;;;;;;21.80;44.90;20.50;102345.00;;;;5074287;28;19915;-66
2022/09/21 10:08:43;;;;;;;;;;;21.80;45.00;20.50;102351.00;;;;5100373;28;20368;-66
2022/09/21 10:11:36;;;;;;;;;;;21.80;45.00;20.50;102346.00;;;;5103616;27;20330;-66
2022/09/21 10:14:23;;;;;;;;;;;21.80;45.00;20.50;102340.00;;;;5085029;28;19937;-66
2022/09/21 10:17:11;;;;;;;;;;;21.80;45.00;20.50;102347.00;;;;5103595;27;20330;-66
2022/09/21 10:20:01;;;;;;;;;;;21.80;44.90;20.60;102346.00;;;;5085797;28;19911;-66
2022/09/21 10:22:50;;;;;;;;;;;21.80;44.90;20.60;102341.00;;;;5086824;27;19915;-66
2022/09/21 10:25:36;;;;;;;;;;;21.90;45.00;20.60;102334.00;;;;5079356;28;19912;-66
2022/09/21 10:28:22;;;;;;;;;;;21.90;45.00;20.60;102337.00;;;;5104414;28;19915;-66
2022/09/21 10:31:08;;;;;;;;;;;21.90;45.00;20.60;102342.00;;;;5085934;28;20366;-66
2022/09/21 10:34:00;;;;;;;;;;;21.90;45.00;20.60;102331.00;;;;5097940;28;19939;-66
2022/09/21 10:36:54;;;;;;;;;;;21.90;45.00;20.60;102333.00;;;;5104532;28;19999;-66
2022/09/21 10:39:44;;;;;;;;;;;21.90;44.90;20.60;102332.00;;;;5107212;27;19922;-66
2022/09/21 10:42:34;;;;;;;;;;;21.90;44.90;20.60;102334.00;;;;5093239;28;20361;-66
2022/09/21 10:45:22;;;;;;;;;;;21.90;44.90;20.60;102333.00;;;;5090047;28;19923;-66
2022/09/21 10:48:12;;;;;;;;;;;21.90;44.90;20.60;102331.00;;;;5092374;27;19916;-66
2022/09/21 10:50:58;;;;;;;;;;;21.90;44.90;20.70;102331.00;;;;5108464;27;19923;-66
2022/09/21 10:53:46;;;;;;;;;;;22.00;44.90;20.70;102321.00;;;;5105614;27;19912;-66
2022/09/21 10:56:32;;;;;;;;;;;22.00;44.90;20.70;102328.00;;;;5092476;27;19912;-66
2022/09/21 10:59:22;;;;;;;;;;;22.00;44.90;20.70;102322.00;;;;5104707;27;19915;-66
2022/09/21 11:02:22;;;;;;;;;;;22.00;45.00;20.70;102321.00;;;;5106805;27;19919;-66
2022/09/21 11:05:17;;;;;;;;;;;22.00;44.90;20.70;102323.00;;;;5101770;27;19955;-66
2022/09/21 11:08:08;;;;;;;;;;;22.00;44.90;20.70;102321.00;;;;5079658;27;20050;-66
2022/09/21 11:11:24;;;;;;;;;;;21.90;44.80;20.70;102310.00;;;;5084234;27;19918;-66
2022/09/21 11:14:42;;;;;;;;;;;22.00;44.90;20.70;102312.00;;;;5091655;28;19912;-66
2022/09/21 11:17:38;;;;;;;;;;;22.00;44.90;20.70;102303.00;;;;5085175;28;20225;-66
2022/09/21 11:20:40;;;;;;;;;;;22.00;44.90;20.70;102313.00;;;;5088853;28;19919;-66
2022/09/21 11:23:44;;;;;;;;;;;22.00;44.90;20.70;102310.00;;;;5092272;28;19916;-66
2022/09/21 11:26:39;;;;;;;;;;;22.10;44.90;20.70;102305.00;;;;5104997;27;19919;-66
2022/09/21 11:29:55;;;;;;;;;;;22.10;44.90;20.70;102304.00;;;;5103111;28;19919;-66
2022/09/21 11:33:03;;;;;;;;;;;22.10;44.90;20.70;102307.00;;;;5093215;27;20015;-66
2022/09/21 11:36:01;;;;;;;;;;;22.10;44.90;20.80;102304.00;;;;5106547;27;19915;-66
2022/09/21 11:39:11;;;;;;;;;;;22.10;44.90;20.80;102305.00;;;;5093542;27;19998;-66
2022/09/21 11:42:19;;;;;;;;;;;22.10;44.90;20.80;102298.00;;;;5081408;28;20281;-66
2022/09/21 11:45:15;;;;;;;;;;;22.10;44.90;20.80;102299.00;;;;5103586;27;19916;-66
2022/09/21 11:48:22;;;;;;;;;;;22.10;44.80;20.80;102291.00;;;;5080521;28;19916;-66
2022/09/21 11:51:45;;;;;;;;;;;22.10;44.80;20.80;102288.00;;;;5101736;27;20273;-66
2022/09/21 11:54:40;;;;;;;;;;;22.10;44.80;20.80;102291.00;;;;5101407;27;19916;-66
2022/09/21 11:57:32;;;;;;;;;;;22.10;44.80;20.80;102287.00;;;;5105558;27;19935;-66
2022/09/21 12:00:22;;;;;;;;;;;22.20;44.90;20.80;102276.00;;;;5080549;28;19923;-66
2022/09/21 12:03:22;;;;;;;;;;;22.20;44.80;20.80;102290.00;;;;5073936;28;20093;-66
2022/09/21 12:06:17;;;;;;;;;;;22.20;44.80;20.90;102287.00;;;;5078834;27;19927;-70
2022/09/21 12:09:16;;;;;;;;;;;22.20;44.80;20.90;102284.00;;;;5090713;28;20270;-70
2022/09/21 12:12:08;;;;;;;;;;;22.20;44.80;20.90;102272.00;;;;5073428;27;19952;-70
2022/09/21 12:15:11;;;;;;;;;;;22.20;44.80;20.90;102270.00;;;;5101267;27;19951;-70
2022/09/21 12:18:12;;;;;;;;;;;22.20;44.70;20.90;102265.00;;;;5110340;27;20014;-70
2022/09/21 12:21:06;;;;;;;;;;;22.20;44.70;20.90;102264.00;;;;5091519;27;19919;-69
2022/09/21 12:23:56;;;;;;;;;;;22.20;44.80;20.90;102272.00;;;;5090968;28;19916;-70
2022/09/21 12:26:46;;;;;;;;;;;22.20;44.70;20.90;102269.00;;;;5092971;28;19963;-70
2022/09/21 12:29:36;;;;;;;;;;;22.20;44.70;20.90;102261.00;;;;5088407;28;19920;-70
2022/09/21 12:32:43;;;;;;;;;;;22.20;44.70;20.90;102261.00;;;;5094228;28;20361;-70
2022/09/21 12:35:42;;;;;;;;;;;22.20;44.70;20.90;102260.00;;;;5103453;27;19912;-70
2022/09/21 12:38:44;;;;;;;;;;;22.20;44.70;20.90;102263.00;;;;5089473;27;19919;-70
2022/09/21 12:41:43;;;;;;;;;;;22.20;44.70;20.90;102260.00;;;;5087881;27;19915;-70
2022/09/21 12:44:50;;;;;;;;;;;22.30;44.70;20.90;102256.00;;;;5088215;28;19915;-70
2022/09/21 12:47:49;;;;;;;;;;;22.30;44.70;21.00;102256.00;;;;5106872;27;19922;-69
2022/09/21 12:50:36;;;;;;;;;;;22.30;44.70;20.90;102254.00;;;;5100170;28;20045;-70
2022/09/21 12:53:26;;;;;;;;;;;22.30;44.70;21.00;102252.00;;;;5103345;27;19916;-70
2022/09/21 12:56:21;;;;;;;;;;;22.30;44.70;21.00;102244.00;;;;5083227;27;19922;-69
2022/09/21 12:59:26;;;;;;;;;;;22.30;44.60;21.00;102242.00;;;;5093427;28;19916;-69
2022/09/21 13:02:23;;;;;;;;;;;22.30;44.60;21.00;102244.00;;;;5108408;27;19916;-70
2022/09/21 13:05:40;;;;;;;;;;;22.40;44.60;21.00;102234.00;;;;5090251;28;20356;-70
2022/09/21 13:08:35;;;;;;;;;;;22.30;44.60;21.00;102243.00;;;;5105567;27;19919;-70
2022/09/21 13:11:21;;;;;;;;;;;22.30;44.60;21.00;102238.00;;;;5091867;28;19927;-69
2022/09/21 13:14:09;;;;;;;;;;;22.30;44.60;21.00;102232.00;;;;5086765;28;20288;-70
2022/09/21 13:16:57;;;;;;;;;;;22.40;44.60;21.00;102231.00;;;;5091154;27;19923;-70
2022/09/21 13:19:43;;;;;;;;;;;22.40;44.60;21.00;102226.00;;;;5086992;27;20399;-69
2022/09/21 13:22:32;;;;;;;;;;;22.40;44.50;21.10;102235.00;;;;5107996;27;19912;-69
2022/09/21 13:25:23;;;;;;;;;;;22.40;44.50;21.10;102229.00;;;;5098099;27;19912;-69
2022/09/21 13:28:12;;;;;;;;;;;22.40;44.50;21.10;102231.00;;;;5086652;27;19923;-69
2022/09/21 13:31:04;;;;;;;;;;;22.40;44.50;21.10;102233.00;;;;5099900;27;20288;-69
2022/09/21 13:34:14;;;;;;;;;;;22.40;44.40;21.10;102225.00;;;;5100999;27;19912;-70
2022/09/21 13:37:16;;;;;;;;;;;22.40;44.50;21.10;102221.00;;;;5103896;27;19918;-70
2022/09/21 13:40:02;;;;;;;;;;;22.40;44.40;21.10;102220.00;;;;5102207;27;19916;-70
2022/09/21 13:42:48;;;;;;;;;;;22.40;44.40;21.10;102218.00;;;;5102925;27;19915;-69
2022/09/21 13:45:34;;;;;;;;;;;22.50;44.50;21.10;102213.00;;;;5103325;27;19920;-70
2022/09/21 13:48:26;;;;;;;;;;;22.50;44.50;21.10;102219.00;;;;5099569;27;19916;-69
2022/09/21 13:51:13;;;;;;;;;;;22.50;44.50;21.10;102214.00;;;;5086418;27;20383;-70
2022/09/21 13:54:00;;;;;;;;;;;22.50;44.50;21.10;102208.00;;;;5085991;27;20396;-70